sensor_id;sensor_type;location;lat;lon;timestamp;pressure;altitude;pressure_sealevel;temperature;humidity
13478;BME280;12598;62.382;17.344;2024-01-16T00:00:55;99559.78;;;12.25;15.22
13478;BME280;12598;62.382;17.344;2024-01-16T00:01:57;99552.00;;;12.23;15.69
13478;BME280;12598;62.382;17.344;2024-01-16T00:02:58;99554.66;;;12.23;14.95
13478;BME280;12598;62.382;17.344;2024-01-16T00:04:00;99552.81;;;12.24;15.20
13478;BME280;12598;62.382;17.344;2024-01-16T00:05:02;99561.75;;;12.23;15.72
13478;BME280;12598;62.382;17.344;2024-01-16T00:06:04;99553.78;;;12.23;15.08
13478;BME280;12598;62.382;17.344;2024-01-16T00:07:08;99549.75;;;12.19;15.07
13478;BME280;12598;62.382;17.344;2024-01-16T00:08:10;99559.25;;;12.21;15.32
13478;BME280;12598;62.382;17.344;2024-01-16T00:09:12;99552.13;;;12.22;15.31
13478;BME280;12598;62.382;17.344;2024-01-16T00:10:13;99548.34;;;12.15;15.21
13478;BME280;12598;62.382;17.344;2024-01-16T00:11:15;99555.06;;;12.19;15.57
13478;BME280;12598;62.382;17.344;2024-01-16T00:12:17;99554.06;;;12.20;15.11
13478;BME280;12598;62.382;17.344;2024-01-16T00:13:19;99556.72;;;12.20;15.29
13478;BME280;12598;62.382;17.344;2024-01-16T00:14:21;99554.22;;;12.18;14.86
13478;BME280;12598;62.382;17.344;2024-01-16T00:15:23;99554.22;;;12.18;15.27
13478;BME280;12598;62.382;17.344;2024-01-16T00:16:25;99547.25;;;12.17;14.94
13478;BME280;12598;62.382;17.344;2024-01-16T00:17:26;99549.06;;;12.17;15.30
13478;BME280;12598;62.382;17.344;2024-01-16T00:18:28;99548.22;;;12.16;15.07
13478;BME280;12598;62.382;17.344;2024-01-16T00:19:31;99548.22;;;12.16;15.62
13478;BME280;12598;62.382;17.344;2024-01-16T00:20:33;99548.34;;;12.15;14.87
13478;BME280;12598;62.382;17.344;2024-01-16T00:21:41;99546.13;;;12.10;15.38
13478;BME280;12598;62.382;17.344;2024-01-16T00:22:43;99558.84;;;12.16;14.92
13478;BME280;12598;62.382;17.344;2024-01-16T00:23:45;99554.50;;;12.15;15.31
13478;BME280;12598;62.382;17.344;2024-01-16T00:24:47;99557.28;;;12.14;15.17
13478;BME280;12598;62.382;17.344;2024-01-16T00:25:49;99533.72;;;12.01;15.67
13478;BME280;12598;62.382;17.344;2024-01-16T00:26:51;99557.28;;;12.14;15.22
13478;BME280;12598;62.382;17.344;2024-01-16T00:27:54;99546.97;;;12.11;15.49
13478;BME280;12598;62.382;17.344;2024-01-16T00:28:56;99548.63;;;12.12;15.01
13478;BME280;12598;62.382;17.344;2024-01-16T00:29:58;99537.22;;;12.02;15.13
13478;BME280;12598;62.382;17.344;2024-01-16T00:31:00;99558.38;;;12.11;14.87
13478;BME280;12598;62.382;17.344;2024-01-16T00:32:01;99558.38;;;12.11;15.00
13478;BME280;12598;62.382;17.344;2024-01-16T00:33:04;99546.97;;;12.11;15.50
13478;BME280;12598;62.382;17.344;2024-01-16T00:34:06;99554.06;;;12.10;14.94
13478;BME280;12598;62.382;17.344;2024-01-16T00:35:08;99549.75;;;12.09;14.95
13478;BME280;12598;62.382;17.344;2024-01-16T00:36:10;99523.25;;;11.90;15.23
13478;BME280;12598;62.382;17.344;2024-01-16T00:37:12;99517.66;;;11.84;15.43
13478;BME280;12598;62.382;17.344;2024-01-16T00:38:14;99557.84;;;12.08;14.96
13478;BME280;12598;62.382;17.344;2024-01-16T00:39:15;99552.66;;;12.06;15.26
13478;BME280;12598;62.382;17.344;2024-01-16T00:40:17;99555.19;;;12.08;15.58
13478;BME280;12598;62.382;17.344;2024-01-16T00:41:19;99539.16;;;12.00;15.29
13478;BME280;12598;62.382;17.344;2024-01-16T00:42:21;99555.31;;;12.06;15.39
13478;BME280;12598;62.382;17.344;2024-01-16T00:43:23;99555.47;;;12.05;15.03
13478;BME280;12598;62.382;17.344;2024-01-16T00:44:25;99556.44;;;12.04;15.03
13478;BME280;12598;62.382;17.344;2024-01-16T00:45:26;99558.13;;;12.05;15.49
13478;BME280;12598;62.382;17.344;2024-01-16T00:46:28;99546.56;;;12.06;14.96
13478;BME280;12598;62.382;17.344;2024-01-16T00:47:30;99539.28;;;11.98;15.35
13478;BME280;12598;62.382;17.344;2024-01-16T00:48:32;99546.25;;;11.99;15.25
13478;BME280;12598;62.382;17.344;2024-01-16T00:49:35;99551.44;;;12.01;15.26
13478;BME280;12598;62.382;17.344;2024-01-16T00:50:37;99549.47;;;12.03;15.57
13478;BME280;12598;62.382;17.344;2024-01-16T00:51:39;99549.59;;;12.01;15.58
13478;BME280;12598;62.382;17.344;2024-01-16T00:52:41;99554.06;;;12.01;15.34
13478;BME280;12598;62.382;17.344;2024-01-16T00:53:43;99562.03;;;12.01;15.57
13478;BME280;12598;62.382;17.344;2024-01-16T00:54:45;99559.38;;;12.01;15.22
13478;BME280;12598;62.382;17.344;2024-01-16T00:55:47;99546.25;;;11.99;15.02
13478;BME280;12598;62.382;17.344;2024-01-16T00:56:49;99550.72;;;11.99;15.66
13478;BME280;12598;62.382;17.344;2024-01-16T00:57:51;99557.81;;;11.98;15.12
13478;BME280;12598;62.382;17.344;2024-01-16T00:58:53;99559.66;;;11.98;15.71
13478;BME280;12598;62.382;17.344;2024-01-16T00:59:58;99559.66;;;11.98;15.28
13478;BME280;12598;62.382;17.344;2024-01-16T01:01:00;99549.63;;;11.92;15.33
13478;BME280;12598;62.382;17.344;2024-01-16T01:02:02;99557.97;;;11.97;15.15
13478;BME280;12598;62.382;17.344;2024-01-16T01:03:05;99555.16;;;11.89;15.20
13478;BME280;12598;62.382;17.344;2024-01-16T01:04:07;99560.75;;;11.95;15.25
13478;BME280;12598;62.382;17.344;2024-01-16T01:05:08;99559.09;;;11.94;15.06
13478;BME280;12598;62.382;17.344;2024-01-16T01:06:11;99561.44;;;11.88;15.38
13478;BME280;12598;62.382;17.344;2024-01-16T01:07:13;99563.56;;;11.94;15.39
13478;BME280;12598;62.382;17.344;2024-01-16T01:08:16;99562.84;;;11.92;14.99
13478;BME280;12598;62.382;17.344;2024-01-16T01:09:18;99567.19;;;11.93;15.01
13478;BME280;12598;62.382;17.344;2024-01-16T01:10:20;99567.19;;;11.93;15.38
13478;BME280;12598;62.382;17.344;2024-01-16T01:11:22;99565.50;;;11.92;15.00
13478;BME280;12598;62.382;17.344;2024-01-16T01:12:23;99555.88;;;11.91;15.00
13478;BME280;12598;62.382;17.344;2024-01-16T01:13:25;99559.34;;;11.91;15.57
13478;BME280;12598;62.382;17.344;2024-01-16T01:14:27;99563.84;;;11.91;15.45
13478;BME280;12598;62.382;17.344;2024-01-16T01:15:31;99555.88;;;11.91;15.01
13478;BME280;12598;62.382;17.344;2024-01-16T01:16:33;99549.75;;;11.90;15.08
13478;BME280;12598;62.382;17.344;2024-01-16T01:17:35;99554.19;;;11.90;15.56
13478;BME280;12598;62.382;17.344;2024-01-16T01:18:37;99553.38;;;11.89;15.68
13478;BME280;12598;62.382;17.344;2024-01-16T01:19:39;99553.38;;;11.89;15.06
13478;BME280;12598;62.382;17.344;2024-01-16T01:20:41;99552.50;;;11.89;15.10
13478;BME280;12598;62.382;17.344;2024-01-16T01:21:43;99558.94;;;11.86;15.11
13478;BME280;12598;62.382;17.344;2024-01-16T01:22:45;99531.59;;;11.67;15.54
13478;BME280;12598;62.382;17.344;2024-01-16T01:23:47;99557.97;;;11.87;15.35
13478;BME280;12598;62.382;17.344;2024-01-16T01:24:49;99558.94;;;11.86;15.66
13478;BME280;12598;62.382;17.344;2024-01-16T01:25:51;99562.56;;;11.85;15.07
13478;BME280;12598;62.382;17.344;2024-01-16T01:26:53;99563.38;;;11.86;14.87
13478;BME280;12598;62.382;17.344;2024-01-16T01:27:55;99568.69;;;11.86;15.25
13478;BME280;12598;62.382;17.344;2024-01-16T01:28:57;99567.00;;;11.85;15.69
13478;BME280;12598;62.382;17.344;2024-01-16T01:29:59;99571.47;;;11.84;14.86
13478;BME280;12598;62.382;17.344;2024-01-16T01:31:00;99558.91;;;11.77;15.14
13478;BME280;12598;62.382;17.344;2024-01-16T01:32:02;99563.66;;;11.83;15.46
13478;BME280;12598;62.382;17.344;2024-01-16T01:33:04;99567.28;;;11.82;15.08
13478;BME280;12598;62.382;17.344;2024-01-16T01:34:06;99576.19;;;11.81;15.35
13478;BME280;12598;62.382;17.344;2024-01-16T01:35:09;99567.28;;;11.82;15.59
13478;BME280;12598;62.382;17.344;2024-01-16T01:36:12;99570.91;;;11.81;15.08
13478;BME280;12598;62.382;17.344;2024-01-16T01:37:14;99570.91;;;11.81;14.84
13478;BME280;12598;62.382;17.344;2024-01-16T01:38:15;99571.19;;;11.78;14.96
13478;BME280;12598;62.382;17.344;2024-01-16T01:39:17;99572.84;;;11.79;15.23
13478;BME280;12598;62.382;17.344;2024-01-16T01:40:19;99572.84;;;11.79;15.18
13478;BME280;12598;62.382;17.344;2024-01-16T01:41:21;99573.81;;;11.78;15.60
13478;BME280;12598;62.382;17.344;2024-01-16T01:42:23;99571.19;;;11.78;14.94
13478;BME280;12598;62.382;17.344;2024-01-16T01:43:25;99569.78;;;11.74;15.46
13478;BME280;12598;62.382;17.344;2024-01-16T01:44:27;99566.03;;;11.77;15.11
13478;BME280;12598;62.382;17.344;2024-01-16T01:45:29;99576.63;;;11.77;15.71
13478;BME280;12598;62.382;17.344;2024-01-16T01:46:32;99575.78;;;11.76;15.13
13478;BME280;12598;62.382;17.344;2024-01-16T01:47:41;99573.13;;;11.76;15.71
13478;BME280;12598;62.382;17.344;2024-01-16T01:48:46;99565.44;;;11.73;15.31
13478;BME280;12598;62.382;17.344;2024-01-16T01:49:49;99573.81;;;11.78;15.31
13478;BME280;12598;62.382;17.344;2024-01-16T01:50:51;99569.50;;;11.77;15.32
13478;BME280;12598;62.382;17.344;2024-01-16T01:51:53;99578.41;;;11.76;15.34
13478;BME280;12598;62.382;17.344;2024-01-16T01:52:55;99578.41;;;11.76;15.32
13478;BME280;12598;62.382;17.344;2024-01-16T01:53:58;99574.09;;;11.75;15.36
13478;BME280;12598;62.382;17.344;2024-01-16T01:55:02;99570.63;;;11.75;15.43
13478;BME280;12598;62.382;17.344;2024-01-16T01:56:08;99575.06;;;11.74;15.11
13478;BME280;12598;62.382;17.344;2024-01-16T01:57:10;99572.16;;;11.77;15.38
13478;BME280;12598;62.382;17.344;2024-01-16T01:58:12;99561.69;;;11.66;15.22
13478;BME280;12598;62.382;17.344;2024-01-16T01:59:17;99559.31;;;11.63;15.39
13478;BME280;12598;62.382;17.344;2024-01-16T02:00:20;99576.75;;;11.75;14.94
13478;BME280;12598;62.382;17.344;2024-01-16T02:01:23;99585.66;;;11.74;15.56
13478;BME280;12598;62.382;17.344;2024-01-16T02:02:25;99584.00;;;11.73;15.09
13478;BME280;12598;62.382;17.344;2024-01-16T02:03:29;99567.25;;;11.63;15.35
13478;BME280;12598;62.382;17.344;2024-01-16T02:04:31;99581.50;;;11.72;14.81
13478;BME280;12598;62.382;17.344;2024-01-16T02:05:33;99563.75;;;11.63;15.14
13478;BME280;12598;62.382;17.344;2024-01-16T02:06:35;99591.22;;;11.71;15.59
13478;BME280;12598;62.382;17.344;2024-01-16T02:07:37;99579.25;;;11.67;15.29
13478;BME280;12598;62.382;17.344;2024-01-16T02:08:40;99589.56;;;11.70;15.14
13478;BME280;12598;62.382;17.344;2024-01-16T02:09:43;99587.19;;;11.67;15.09
13478;BME280;12598;62.382;17.344;2024-01-16T02:10:47;99603.75;;;11.69;15.09
13478;BME280;12598;62.382;17.344;2024-01-16T02:11:50;99600.16;;;11.70;15.25
13478;BME280;12598;62.382;17.344;2024-01-16T02:12:52;99585.78;;;11.63;14.98
13478;BME280;12598;62.382;17.344;2024-01-16T02:13:54;99601.97;;;11.70;15.57
13478;BME280;12598;62.382;17.344;2024-01-16T02:14:56;99595.13;;;11.67;15.33
13478;BME280;12598;62.382;17.344;2024-01-16T02:15:58;99602.09;;;11.68;15.07
13478;BME280;12598;62.382;17.344;2024-01-16T02:16:59;99607.38;;;11.68;14.85
13478;BME280;12598;62.382;17.344;2024-01-16T02:18:02;99596.09;;;11.66;15.14
13478;BME280;12598;62.382;17.344;2024-01-16T02:19:04;99598.47;;;11.69;15.00
13478;BME280;12598;62.382;17.344;2024-01-16T02:20:06;99556.28;;;11.47;15.58
13478;BME280;12598;62.382;17.344;2024-01-16T02:21:09;99590.66;;;11.68;15.05
13478;BME280;12598;62.382;17.344;2024-01-16T02:22:16;99591.63;;;11.67;14.93
13478;BME280;12598;62.382;17.344;2024-01-16T02:23:26;99589.81;;;11.67;15.56
13478;BME280;12598;62.382;17.344;2024-01-16T02:24:29;99589.56;;;11.70;15.59
13478;BME280;12598;62.382;17.344;2024-01-16T02:25:31;99573.22;;;11.56;14.98
13478;BME280;12598;62.382;17.344;2024-01-16T02:26:33;99595.94;;;11.68;15.33
13478;BME280;12598;62.382;17.344;2024-01-16T02:27:35;99592.47;;;11.67;15.03
13478;BME280;12598;62.382;17.344;2024-01-16T02:28:37;99593.44;;;11.66;15.54
13478;BME280;12598;62.382;17.344;2024-01-16T02:29:42;99589.13;;;11.65;15.14
13478;BME280;12598;62.382;17.344;2024-01-16T02:30:46;99595.13;;;11.67;15.23
13478;BME280;12598;62.382;17.344;2024-01-16T02:31:48;99557.13;;;11.48;15.00
13478;BME280;12598;62.382;17.344;2024-01-16T02:32:50;99575.72;;;11.57;15.17
13478;BME280;12598;62.382;17.344;2024-01-16T02:33:52;99583.94;;;11.64;15.28
13478;BME280;12598;62.382;17.344;2024-01-16T02:34:54;99585.63;;;11.65;15.64
13478;BME280;12598;62.382;17.344;2024-01-16T02:35:56;99580.34;;;11.65;15.12
13478;BME280;12598;62.382;17.344;2024-01-16T02:36:58;99587.56;;;11.63;15.52
13478;BME280;12598;62.382;17.344;2024-01-16T02:37:59;99583.94;;;11.64;15.59
13478;BME280;12598;62.382;17.344;2024-01-16T02:39:02;99578.38;;;11.57;15.62
13478;BME280;12598;62.382;17.344;2024-01-16T02:40:04;99588.44;;;11.63;15.68
13478;BME280;12598;62.382;17.344;2024-01-16T02:41:13;99587.56;;;11.63;15.67
13478;BME280;12598;62.382;17.344;2024-01-16T02:42:15;99590.09;;;11.64;15.10
13478;BME280;12598;62.382;17.344;2024-01-16T02:43:17;99592.88;;;11.63;15.12
13478;BME280;12598;62.382;17.344;2024-01-16T02:44:18;99591.06;;;11.63;15.23
13478;BME280;12598;62.382;17.344;2024-01-16T02:45:20;99581.56;;;11.61;14.88
13478;BME280;12598;62.382;17.344;2024-01-16T02:46:22;99586.06;;;11.60;15.45
13478;BME280;12598;62.382;17.344;2024-01-16T02:47:24;99587.03;;;11.59;14.83
13478;BME280;12598;62.382;17.344;2024-01-16T02:48:26;99584.38;;;11.59;15.10
13478;BME280;12598;62.382;17.344;2024-01-16T02:49:28;99587.84;;;11.60;15.06
13478;BME280;12598;62.382;17.344;2024-01-16T02:50:30;99594.00;;;11.60;14.87
13478;BME280;12598;62.382;17.344;2024-01-16T02:51:31;99588.00;;;11.58;15.13
13478;BME280;12598;62.382;17.344;2024-01-16T02:52:34;99595.78;;;11.60;15.09
13478;BME280;12598;62.382;17.344;2024-01-16T02:53:35;99590.66;;;11.58;15.19
13478;BME280;12598;62.382;17.344;2024-01-16T02:54:37;99588.00;;;11.58;14.77
13478;BME280;12598;62.382;17.344;2024-01-16T02:55:39;99588.00;;;11.58;15.49
13478;BME280;12598;62.382;17.344;2024-01-16T02:56:41;99580.41;;;11.54;15.24
13478;BME280;12598;62.382;17.344;2024-01-16T02:57:42;99588.97;;;11.57;15.55
13478;BME280;12598;62.382;17.344;2024-01-16T02:58:44;99590.66;;;11.58;15.40
13478;BME280;12598;62.382;17.344;2024-01-16T02:59:46;99583.78;;;11.56;15.46
13478;BME280;12598;62.382;17.344;2024-01-16T03:00:48;99597.88;;;11.56;15.38
13478;BME280;12598;62.382;17.344;2024-01-16T03:01:50;99585.63;;;11.55;15.35
13478;BME280;12598;62.382;17.344;2024-01-16T03:02:52;99588.28;;;11.55;15.12
13478;BME280;12598;62.382;17.344;2024-01-16T03:03:54;99586.44;;;11.56;15.27
13478;BME280;12598;62.382;17.344;2024-01-16T03:04:56;99593.56;;;11.55;14.77
13478;BME280;12598;62.382;17.344;2024-01-16T03:05:57;99590.03;;;11.55;15.01
13478;BME280;12598;62.382;17.344;2024-01-16T03:07:00;99568.00;;;11.45;15.26
13478;BME280;12598;62.382;17.344;2024-01-16T03:08:02;99569.66;;;11.46;15.20
13478;BME280;12598;62.382;17.344;2024-01-16T03:09:04;99578.75;;;11.53;15.41
13478;BME280;12598;62.382;17.344;2024-01-16T03:10:06;99569.66;;;11.46;15.23
13478;BME280;12598;62.382;17.344;2024-01-16T03:11:08;99574.31;;;11.53;15.52
13478;BME280;12598;62.382;17.344;2024-01-16T03:12:10;99573.44;;;11.53;15.11
13478;BME280;12598;62.382;17.344;2024-01-16T03:13:11;99576.94;;;11.53;14.96
13478;BME280;12598;62.382;17.344;2024-01-16T03:14:13;99575.28;;;11.52;14.78
13478;BME280;12598;62.382;17.344;2024-01-16T03:15:15;99572.75;;;11.51;15.25
13478;BME280;12598;62.382;17.344;2024-01-16T03:16:17;99581.53;;;11.51;15.34
13478;BME280;12598;62.382;17.344;2024-01-16T03:17:19;99579.72;;;11.52;15.44
13478;BME280;12598;62.382;17.344;2024-01-16T03:18:21;99577.06;;;11.52;14.85
13478;BME280;12598;62.382;17.344;2024-01-16T03:19:24;99576.09;;;11.53;15.07
13478;BME280;12598;62.382;17.344;2024-01-16T03:20:26;99567.44;;;11.51;15.50
13478;BME280;12598;62.382;17.344;2024-01-16T03:21:28;99579.59;;;11.53;15.51
13478;BME280;12598;62.382;17.344;2024-01-16T03:22:30;99565.19;;;11.46;15.30
13478;BME280;12598;62.382;17.344;2024-01-16T03:23:32;99577.34;;;11.49;15.44
13478;BME280;12598;62.382;17.344;2024-01-16T03:24:34;99577.22;;;11.50;15.54
13478;BME280;12598;62.382;17.344;2024-01-16T03:25:36;99579.97;;;11.49;15.13
13478;BME280;12598;62.382;17.344;2024-01-16T03:26:40;99571.06;;;11.50;15.48
13478;BME280;12598;62.382;17.344;2024-01-16T03:27:44;99576.38;;;11.50;14.72
13478;BME280;12598;62.382;17.344;2024-01-16T03:28:46;99577.34;;;11.49;14.70
13478;BME280;12598;62.382;17.344;2024-01-16T03:29:47;99568.56;;;11.48;14.78
13478;BME280;12598;62.382;17.344;2024-01-16T03:30:49;99574.69;;;11.49;14.70
13478;BME280;12598;62.382;17.344;2024-01-16T03:31:51;99566.06;;;11.47;15.50
13478;BME280;12598;62.382;17.344;2024-01-16T03:32:53;99570.50;;;11.46;15.10
13478;BME280;12598;62.382;17.344;2024-01-16T03:33:55;99567.03;;;11.46;15.32
13478;BME280;12598;62.382;17.344;2024-01-16T03:34:57;99567.03;;;11.46;15.32
13478;BME280;12598;62.382;17.344;2024-01-16T03:35:59;99569.66;;;11.46;14.83
13478;BME280;12598;62.382;17.344;2024-01-16T03:37:00;99568.81;;;11.45;15.53
13478;BME280;12598;62.382;17.344;2024-01-16T03:38:02;99566.31;;;11.44;15.36
13478;BME280;12598;62.382;17.344;2024-01-16T03:39:04;99572.44;;;11.44;15.11
13478;BME280;12598;62.382;17.344;2024-01-16T03:40:07;99567.16;;;11.44;14.94
13478;BME280;12598;62.382;17.344;2024-01-16T03:41:12;99560.59;;;11.39;15.17
13478;BME280;12598;62.382;17.344;2024-01-16T03:42:14;99567.16;;;11.44;14.96
13478;BME280;12598;62.382;17.344;2024-01-16T03:43:16;99567.16;;;11.44;15.16
13478;BME280;12598;62.382;17.344;2024-01-16T03:44:18;99574.38;;;11.42;15.25
13478;BME280;12598;62.382;17.344;2024-01-16T03:45:19;99571.88;;;11.41;14.76
13478;BME280;12598;62.382;17.344;2024-01-16T03:46:22;99572.72;;;11.41;14.84
13478;BME280;12598;62.382;17.344;2024-01-16T03:47:23;99569.34;;;11.39;15.02
13478;BME280;12598;62.382;17.344;2024-01-16T03:48:25;99568.38;;;11.40;14.74
13478;BME280;12598;62.382;17.344;2024-01-16T03:49:27;99564.91;;;11.40;14.75
13478;BME280;12598;62.382;17.344;2024-01-16T03:50:29;99564.06;;;11.39;15.03
13478;BME280;12598;62.382;17.344;2024-01-16T03:51:32;99576.47;;;11.39;15.40
13478;BME280;12598;62.382;17.344;2024-01-16T03:52:34;99575.50;;;11.40;15.38
13478;BME280;12598;62.382;17.344;2024-01-16T03:53:36;99575.50;;;11.40;15.49
13478;BME280;12598;62.382;17.344;2024-01-16T03:54:38;99567.69;;;11.38;15.53
13478;BME280;12598;62.382;17.344;2024-01-16T03:55:39;99573.81;;;11.39;15.01
13478;BME280;12598;62.382;17.344;2024-01-16T03:56:41;99571.31;;;11.37;15.17
13478;BME280;12598;62.382;17.344;2024-01-16T03:57:43;99571.19;;;11.39;15.05
13478;BME280;12598;62.382;17.344;2024-01-16T03:58:45;99568.66;;;11.37;14.82
13478;BME280;12598;62.382;17.344;2024-01-16T03:59:47;99552.34;;;11.32;15.10
13478;BME280;12598;62.382;17.344;2024-01-16T04:00:49;99566.00;;;11.37;15.22
13478;BME280;12598;62.382;17.344;2024-01-16T04:01:52;99553.19;;;11.33;14.95
13478;BME280;12598;62.382;17.344;2024-01-16T04:02:54;99563.50;;;11.36;14.79
13478;BME280;12598;62.382;17.344;2024-01-16T04:03:56;99546.63;;;11.27;15.20
13478;BME280;12598;62.382;17.344;2024-01-16T04:04:58;99555.69;;;11.34;15.35
13478;BME280;12598;62.382;17.344;2024-01-16T04:06:00;99557.38;;;11.35;15.29
13478;BME280;12598;62.382;17.344;2024-01-16T04:07:02;99555.69;;;11.34;15.37
13478;BME280;12598;62.382;17.344;2024-01-16T04:08:04;99555.69;;;11.34;15.08
13478;BME280;12598;62.382;17.344;2024-01-16T04:09:07;99539.78;;;11.25;15.21
13478;BME280;12598;62.382;17.344;2024-01-16T04:10:09;99560.16;;;11.34;15.37
13478;BME280;12598;62.382;17.344;2024-01-16T04:11:12;99561.97;;;11.33;14.72
13478;BME280;12598;62.382;17.344;2024-01-16T04:12:15;99568.94;;;11.34;15.15
13478;BME280;12598;62.382;17.344;2024-01-16T04:13:16;99565.47;;;11.34;15.31
13478;BME280;12598;62.382;17.344;2024-01-16T04:14:18;99563.78;;;11.33;15.24
13478;BME280;12598;62.382;17.344;2024-01-16T04:15:20;99564.59;;;11.33;14.88
13478;BME280;12598;62.382;17.344;2024-01-16T04:16:24;99571.56;;;11.34;15.36
13478;BME280;12598;62.382;17.344;2024-01-16T04:17:26;99574.22;;;11.34;15.34
13478;BME280;12598;62.382;17.344;2024-01-16T04:18:28;99576.03;;;11.34;14.91
13478;BME280;12598;62.382;17.344;2024-01-16T04:19:29;99579.66;;;11.33;14.99
13478;BME280;12598;62.382;17.344;2024-01-16T04:20:35;99575.19;;;11.33;15.33
13478;BME280;12598;62.382;17.344;2024-01-16T04:21:37;99575.19;;;11.33;15.38
13478;BME280;12598;62.382;17.344;2024-01-16T04:22:39;99566.53;;;11.31;14.82
13478;BME280;12598;62.382;17.344;2024-01-16T04:23:41;99563.91;;;11.31;14.60
13478;BME280;12598;62.382;17.344;2024-01-16T04:24:43;99560.44;;;11.31;14.62
13478;BME280;12598;62.382;17.344;2024-01-16T04:25:45;99548.41;;;11.27;15.10
13478;BME280;12598;62.382;17.344;2024-01-16T04:26:47;99554.28;;;11.30;15.31
13478;BME280;12598;62.382;17.344;2024-01-16T04:27:49;99555.16;;;11.31;15.11
13478;BME280;12598;62.382;17.344;2024-01-16T04:28:52;99555.25;;;11.29;15.31
13478;BME280;12598;62.382;17.344;2024-01-16T04:29:54;99558.75;;;11.30;15.22
13478;BME280;12598;62.382;17.344;2024-01-16T04:30:56;99558.88;;;11.28;15.20
13478;BME280;12598;62.382;17.344;2024-01-16T04:31:58;99558.88;;;11.28;15.39
13478;BME280;12598;62.382;17.344;2024-01-16T04:33:00;99517.00;;;11.03;14.81
13478;BME280;12598;62.382;17.344;2024-01-16T04:34:02;99553.44;;;11.20;14.94
13478;BME280;12598;62.382;17.344;2024-01-16T04:35:04;99548.25;;;11.19;14.92
13478;BME280;12598;62.382;17.344;2024-01-16T04:36:06;99541.81;;;11.12;14.86
13478;BME280;12598;62.382;17.344;2024-01-16T04:37:08;99568.75;;;11.26;15.19
13478;BME280;12598;62.382;17.344;2024-01-16T04:38:10;99553.69;;;11.17;14.85
13478;BME280;12598;62.382;17.344;2024-01-16T04:39:12;99573.19;;;11.26;15.16
13478;BME280;12598;62.382;17.344;2024-01-16T04:40:15;99571.41;;;11.26;15.10
13478;BME280;12598;62.382;17.344;2024-01-16T04:41:18;99561.63;;;11.17;15.07
13478;BME280;12598;62.382;17.344;2024-01-16T04:42:21;99576.81;;;11.25;15.22
13478;BME280;12598;62.382;17.344;2024-01-16T04:43:22;99578.63;;;11.24;14.84
13478;BME280;12598;62.382;17.344;2024-01-16T04:44:24;99576.00;;;11.24;15.16
13478;BME280;12598;62.382;17.344;2024-01-16T04:45:26;99563.69;;;11.14;14.87
13478;BME280;12598;62.382;17.344;2024-01-16T04:46:28;99577.94;;;11.22;14.56
13478;BME280;12598;62.382;17.344;2024-01-16T04:47:30;99577.94;;;11.22;14.58
13478;BME280;12598;62.382;17.344;2024-01-16T04:48:33;99575.28;;;11.22;15.23
13478;BME280;12598;62.382;17.344;2024-01-16T04:49:35;99567.88;;;11.16;14.83
13478;BME280;12598;62.382;17.344;2024-01-16T04:50:36;99572.66;;;11.22;14.62
13478;BME280;12598;62.382;17.344;2024-01-16T04:51:38;99572.75;;;11.21;14.76
13478;BME280;12598;62.382;17.344;2024-01-16T04:52:40;99581.56;;;11.21;15.12
13478;BME280;12598;62.382;17.344;2024-01-16T04:53:42;99574.59;;;11.20;15.20
13478;BME280;12598;62.382;17.344;2024-01-16T04:54:44;99574.59;;;11.20;14.54
13478;BME280;12598;62.382;17.344;2024-01-16T04:55:47;99571.09;;;11.20;15.17
13478;BME280;12598;62.382;17.344;2024-01-16T04:56:49;99577.34;;;11.19;15.35
13478;BME280;12598;62.382;17.344;2024-01-16T04:57:50;99563.13;;;11.10;15.18
13478;BME280;12598;62.382;17.344;2024-01-16T04:58:52;99576.53;;;11.18;14.86
13478;BME280;12598;62.382;17.344;2024-01-16T04:59:54;99563.13;;;11.10;14.59
13478;BME280;12598;62.382;17.344;2024-01-16T05:00:56;99580.97;;;11.18;15.30
13478;BME280;12598;62.382;17.344;2024-01-16T05:01:58;99580.25;;;11.16;15.23
13478;BME280;12598;62.382;17.344;2024-01-16T05:03:03;99574.16;;;11.15;14.55
13478;BME280;12598;62.382;17.344;2024-01-16T05:04:06;99581.22;;;11.15;15.41
13478;BME280;12598;62.382;17.344;2024-01-16T05:05:09;99577.63;;;11.16;15.30
13478;BME280;12598;62.382;17.344;2024-01-16T05:06:13;99582.91;;;11.16;14.89
13478;BME280;12598;62.382;17.344;2024-01-16T05:07:16;99578.47;;;11.16;15.31
13478;BME280;12598;62.382;17.344;2024-01-16T05:08:18;99583.16;;;11.13;14.82
13478;BME280;12598;62.382;17.344;2024-01-16T05:09:20;99588.19;;;11.16;14.95
13478;BME280;12598;62.382;17.344;2024-01-16T05:10:22;99583.06;;;11.14;15.10
13478;BME280;12598;62.382;17.344;2024-01-16T05:11:24;99585.81;;;11.13;14.84
13478;BME280;12598;62.382;17.344;2024-01-16T05:12:25;99582.34;;;11.12;14.42
13478;BME280;12598;62.382;17.344;2024-01-16T05:13:27;99572.31;;;11.06;15.01
13478;BME280;12598;62.382;17.344;2024-01-16T05:14:29;99599.03;;;11.13;14.77
13478;BME280;12598;62.382;17.344;2024-01-16T05:15:31;99594.59;;;11.13;14.71
13478;BME280;12598;62.382;17.344;2024-01-16T05:16:32;99603.50;;;11.12;14.81
13478;BME280;12598;62.382;17.344;2024-01-16T05:17:34;99592.22;;;11.10;15.01
13478;BME280;12598;62.382;17.344;2024-01-16T05:18:36;99596.53;;;11.11;15.18
13478;BME280;12598;62.382;17.344;2024-01-16T05:19:38;99593.91;;;11.11;14.71
13478;BME280;12598;62.382;17.344;2024-01-16T05:20:40;99592.22;;;11.10;15.37
13478;BME280;12598;62.382;17.344;2024-01-16T05:21:42;99596.66;;;11.10;15.36
13478;BME280;12598;62.382;17.344;2024-01-16T05:22:44;99586.22;;;11.08;14.49
13478;BME280;12598;62.382;17.344;2024-01-16T05:23:46;99598.50;;;11.09;14.98
13478;BME280;12598;62.382;17.344;2024-01-16T05:24:48;99596.66;;;11.10;14.58
13478;BME280;12598;62.382;17.344;2024-01-16T05:25:50;99581.44;;;11.02;14.72